createdAt,value
2023-02-22T00:00:08.700Z,19.19
2023-02-22T00:02:35.042Z,19.22
2023-02-22T00:05:01.422Z,19.20
2023-02-22T00:07:27.739Z,19.10
2023-02-22T00:09:54.065Z,19.22
2023-02-22T00:15:04.390Z,19.16
2023-02-22T00:17:30.700Z,19.13
2023-02-22T00:19:57.043Z,19.19
2023-02-22T00:22:23.359Z,19.17
2023-02-22T00:24:49.735Z,19.14
2023-02-22T00:30:00.126Z,19.13
2023-02-22T00:32:26.553Z,19.10
2023-02-22T00:34:52.917Z,19.11
2023-02-22T00:37:19.280Z,19.14
2023-02-22T00:39:45.601Z,19.15
2023-02-22T00:45:05.969Z,19.13
2023-02-22T00:47:32.343Z,19.14
2023-02-22T00:49:58.664Z,19.11
2023-02-22T00:52:24.975Z,19.14
2023-02-22T00:54:51.301Z,19.13
2023-02-22T01:00:01.676Z,19.10
2023-02-22T01:02:28.023Z,19.15
2023-02-22T01:04:54.576Z,19.10
2023-02-22T01:07:23.781Z,19.07
2023-02-22T01:09:50.095Z,19.10
2023-02-22T01:12:16.502Z,19.09
2023-02-22T01:14:45.599Z,19.06
2023-02-22T01:17:11.944Z,19.14
2023-02-22T01:19:38.293Z,19.08
2023-02-22T01:22:04.640Z,19.03
2023-02-22T01:24:30.995Z,19.12
2023-02-22T01:26:57.326Z,19.07
2023-02-22T01:29:23.645Z,19.07
2023-02-22T01:31:49.984Z,19.08
2023-02-22T01:34:16.281Z,19.06
2023-02-22T01:36:42.579Z,19.04
2023-02-22T01:39:08.927Z,19.06
2023-02-22T01:41:35.288Z,19.04
2023-02-22T01:44:01.625Z,19.05
2023-02-22T01:46:30.735Z,19.07
2023-02-22T01:48:57.064Z,19.05
2023-02-22T01:51:23.384Z,19.07
2023-02-22T01:53:52.499Z,19.06
2023-02-22T01:56:18.817Z,19.04
2023-02-22T01:58:45.109Z,19.09
2023-02-22T02:01:11.461Z,19.01
2023-02-22T02:03:40.640Z,19.03
2023-02-22T02:06:06.959Z,19.07
2023-02-22T02:08:33.254Z,18.96
2023-02-22T02:10:59.581Z,19.01
2023-02-22T02:13:28.694Z,18.99
2023-02-22T02:15:55.120Z,19.02
2023-02-22T02:18:21.465Z,19.04
2023-02-22T02:20:47.749Z,19.05
2023-02-22T02:23:14.104Z,19.01
2023-02-22T02:25:43.205Z,19.02
2023-02-22T02:28:09.539Z,19.03
2023-02-22T02:33:22.563Z,18.98
2023-02-22T02:35:48.862Z,19.00
2023-02-22T02:38:15.185Z,19.02
2023-02-22T02:40:41.502Z,19.00
2023-02-22T02:43:10.602Z,19.07
2023-02-22T02:48:20.657Z,18.97
2023-02-22T02:50:49.740Z,19.06
2023-02-22T02:53:16.095Z,19.06
2023-02-22T02:55:45.191Z,19.02
2023-02-22T02:58:11.501Z,19.02
2023-02-22T03:03:34.772Z,19.01
2023-02-22T03:06:01.070Z,19.00
2023-02-22T03:08:30.164Z,19.01
2023-02-22T03:10:56.487Z,19.05
2023-02-22T03:13:25.583Z,19.00
2023-02-22T03:18:48.793Z,19.00
2023-02-22T03:21:15.497Z,19.02
2023-02-22T03:23:44.733Z,18.99
2023-02-22T03:26:11.048Z,18.96
2023-02-22T03:28:37.343Z,19.07
2023-02-22T03:34:03.040Z,19.04
2023-02-22T03:36:29.352Z,19.04
2023-02-22T03:38:58.474Z,19.07
2023-02-22T03:41:24.773Z,19.07
2023-02-22T03:43:51.106Z,19.00
2023-02-22T03:49:13.916Z,19.05
2023-02-22T03:51:43.026Z,19.06
2023-02-22T03:54:09.367Z,19.07
2023-02-22T03:56:38.507Z,19.05
2023-02-22T03:59:04.841Z,18.99
2023-02-22T04:04:27.879Z,19.00
2023-02-22T04:06:57.068Z,19.04
2023-02-22T04:09:23.370Z,19.01
2023-02-22T04:11:52.466Z,18.97
2023-02-22T04:14:18.792Z,19.04
2023-02-22T04:19:31.667Z,18.99
2023-02-22T04:22:00.760Z,18.95
2023-02-22T04:24:28.047Z,18.94
2023-02-22T04:26:58.702Z,18.97
2023-02-22T04:29:27.816Z,18.92
2023-02-22T04:34:47.986Z,18.99
2023-02-22T04:37:14.294Z,19.00
2023-02-22T04:39:40.626Z,18.94
2023-02-22T04:42:06.925Z,18.96
2023-02-22T04:44:33.237Z,18.93
2023-02-22T04:49:48.968Z,18.89
2023-02-22T04:52:17.048Z,18.93
2023-02-22T04:54:46.162Z,18.92
2023-02-22T04:57:12.456Z,18.90
2023-02-22T04:59:41.559Z,18.91
2023-02-22T05:04:51.615Z,18.91
2023-02-22T05:07:17.933Z,18.95
2023-02-22T05:09:47.084Z,18.90
2023-02-22T05:12:13.398Z,18.94
2023-02-22T05:14:39.698Z,18.98
2023-02-22T05:20:02.778Z,18.92
2023-02-22T05:22:29.123Z,18.95
2023-02-22T05:24:55.408Z,18.94
2023-02-22T05:27:21.681Z,18.92
2023-02-22T05:29:50.809Z,18.91
2023-02-22T05:35:00.874Z,18.93
2023-02-22T05:37:29.967Z,18.94
2023-02-22T05:39:59.075Z,18.94
2023-02-22T05:42:28.180Z,18.89
2023-02-22T05:44:54.479Z,18.89
2023-02-22T05:50:17.553Z,18.96
2023-02-22T05:52:43.901Z,18.90
2023-02-22T05:55:10.205Z,18.96
2023-02-22T05:57:39.571Z,18.97
2023-02-22T06:00:05.880Z,18.86
2023-02-22T06:05:18.683Z,18.91
2023-02-22T06:07:47.796Z,18.95
2023-02-22T06:10:14.080Z,18.97
2023-02-22T06:12:43.170Z,19.03
2023-02-22T06:15:09.523Z,19.05
2023-02-22T06:20:25.094Z,19.06
2023-02-22T06:22:51.420Z,19.02
2023-02-22T06:25:17.729Z,19.06
2023-02-22T06:27:44.055Z,19.03
2023-02-22T06:30:12.283Z,19.07
2023-02-22T06:35:36.151Z,19.06
2023-02-22T06:38:02.468Z,19.07
2023-02-22T06:40:28.781Z,19.06
2023-02-22T06:42:55.161Z,19.09
2023-02-22T06:45:21.490Z,19.10
2023-02-22T06:50:44.362Z,19.10
2023-02-22T06:53:10.708Z,19.10
2023-02-22T06:55:37.187Z,19.11
2023-02-22T06:58:04.562Z,19.11
2023-02-22T07:00:31.077Z,19.14
2023-02-22T07:05:52.395Z,19.14
2023-02-22T07:08:20.022Z,19.15
2023-02-22T07:10:47.544Z,19.14
2023-02-22T07:13:14.303Z,19.16
2023-02-22T07:15:43.473Z,19.13
2023-02-22T07:21:06.782Z,19.16
2023-02-22T07:23:34.098Z,19.15
2023-02-22T07:26:01.374Z,19.19
2023-02-22T07:28:27.804Z,19.10
2023-02-22T07:30:54.228Z,19.07
2023-02-22T07:33:22.497Z,19.05
2023-02-22T07:35:51.665Z,19.06
2023-02-22T07:38:18.093Z,19.08
2023-02-22T07:40:44.583Z,19.12
2023-02-22T07:43:12.062Z,19.09
2023-02-22T07:45:40.577Z,19.08
2023-02-22T07:48:09.002Z,19.02
2023-02-22T07:50:37.412Z,19.00
2023-02-22T07:53:05.808Z,19.01
2023-02-22T07:55:34.196Z,18.99
2023-02-22T07:58:02.638Z,18.96
2023-02-22T08:00:31.032Z,18.97
2023-02-22T08:02:59.449Z,19.00
2023-02-22T08:05:27.853Z,19.03
2023-02-22T08:07:56.140Z,19.06
2023-02-22T08:10:24.431Z,19.02
2023-02-22T08:12:51.922Z,19.01
2023-02-22T08:15:20.197Z,19.05
2023-02-22T08:17:46.734Z,19.04
2023-02-22T08:20:14.261Z,19.04
2023-02-22T08:22:40.819Z,19.07
2023-02-22T08:25:08.470Z,19.09
2023-02-22T08:27:35.059Z,19.09
2023-02-22T08:30:03.283Z,19.16
2023-02-22T08:32:29.997Z,19.07
2023-02-22T08:34:57.486Z,19.04
2023-02-22T08:37:23.987Z,18.99
2023-02-22T08:39:50.483Z,18.97
2023-02-22T08:42:16.979Z,19.05
2023-02-22T08:44:44.454Z,19.07
2023-02-22T08:47:10.960Z,19.07
2023-02-22T08:49:37.540Z,19.12
2023-02-22T08:52:04.023Z,19.15
2023-02-22T08:54:30.512Z,19.14
2023-02-22T08:56:57.010Z,19.16
2023-02-22T08:59:23.504Z,19.21
2023-02-22T09:01:51.143Z,18.99
2023-02-22T09:04:17.643Z,18.36
2023-02-22T09:09:38.977Z,17.73
2023-02-22T09:12:05.529Z,17.61
2023-02-22T09:14:32.970Z,17.52
2023-02-22T09:17:00.366Z,17.45
2023-02-22T09:19:26.863Z,17.37
2023-02-22T09:24:37.292Z,17.29
2023-02-22T09:27:03.773Z,17.15
2023-02-22T09:29:30.526Z,17.08
2023-02-22T09:31:57.067Z,17.09
2023-02-22T09:34:24.521Z,17.09
2023-02-22T09:39:44.974Z,16.91
2023-02-22T09:42:11.525Z,16.95
2023-02-22T09:44:38.863Z,16.78
2023-02-22T09:47:05.312Z,16.78
2023-02-22T09:49:33.619Z,16.81
2023-02-22T09:54:44.928Z,16.75
2023-02-22T09:57:12.175Z,16.75
2023-02-22T09:59:38.722Z,16.79
2023-02-22T10:02:05.236Z,16.77
2023-02-22T10:04:31.710Z,17.30
2023-02-22T10:09:56.355Z,17.00
2023-02-22T10:12:22.748Z,16.92
2023-02-22T10:14:51.924Z,16.88
2023-02-22T10:17:21.089Z,16.89
2023-02-22T10:19:48.346Z,16.85
2023-02-22T10:25:10.526Z,16.94
2023-02-22T10:27:36.952Z,16.89
2023-02-22T10:30:10.074Z,16.81
2023-02-22T10:32:45.290Z,16.86
2023-02-22T10:35:12.538Z,16.90
2023-02-22T10:40:23.521Z,16.88
2023-02-22T10:42:49.868Z,16.86
2023-02-22T10:45:17.097Z,16.82
2023-02-22T10:47:44.294Z,16.86
2023-02-22T10:50:10.670Z,16.82
2023-02-22T10:55:23.663Z,16.81
2023-02-22T10:57:50.005Z,16.80
2023-02-22T11:00:16.362Z,16.80
2023-02-22T11:02:42.679Z,16.82
2023-02-22T11:05:09.058Z,16.80
2023-02-22T11:10:29.321Z,16.95
2023-02-22T11:12:55.707Z,16.94
2023-02-22T11:15:22.095Z,16.93
2023-02-22T11:17:48.508Z,16.87
2023-02-22T11:20:15.772Z,16.89
2023-02-22T11:25:36.207Z,16.92
2023-02-22T11:28:02.536Z,16.90
2023-02-22T11:30:28.961Z,16.90
2023-02-22T11:32:56.369Z,16.84
2023-02-22T11:35:22.707Z,16.92
2023-02-22T11:40:34.718Z,16.90
2023-02-22T11:43:01.135Z,16.86
2023-02-22T11:45:27.513Z,16.84
2023-02-22T11:47:53.892Z,16.86
2023-02-22T11:50:20.252Z,16.88
2023-02-22T11:55:42.232Z,16.84
2023-02-22T11:58:13.785Z,16.82
2023-02-22T12:00:40.215Z,16.86
2023-02-22T12:03:06.632Z,16.84
2023-02-22T12:05:33.020Z,16.89
2023-02-22T12:10:43.245Z,16.97
2023-02-22T12:13:09.641Z,16.94
2023-02-22T12:15:36.007Z,16.95
2023-02-22T12:18:02.425Z,16.98
2023-02-22T12:20:28.790Z,16.95
2023-02-22T12:25:39.277Z,17.10
2023-02-22T12:28:10.103Z,17.65
2023-02-22T12:30:42.156Z,17.96
2023-02-22T12:33:08.667Z,18.11
2023-02-22T12:35:35.038Z,18.16
2023-02-22T12:40:45.300Z,18.24
2023-02-22T12:43:12.549Z,18.31
2023-02-22T12:45:38.900Z,18.34
2023-02-22T12:48:05.243Z,18.39
2023-02-22T12:50:31.585Z,18.40
2023-02-22T12:52:57.948Z,18.41
2023-02-22T12:55:25.229Z,18.39
2023-02-22T12:57:51.556Z,18.41
2023-02-22T13:00:18.003Z,18.42
2023-02-22T13:02:44.328Z,18.47
2023-02-22T13:05:10.708Z,18.42
2023-02-22T13:07:37.073Z,18.35
2023-02-22T13:10:03.397Z,18.35
2023-02-22T13:12:29.772Z,18.51
2023-02-22T13:14:56.123Z,18.50
2023-02-22T13:17:22.535Z,18.49
2023-02-22T13:19:48.850Z,18.47
2023-02-22T13:22:16.154Z,18.46
2023-02-22T13:24:42.500Z,18.38
2023-02-22T13:27:08.881Z,18.28
2023-02-22T13:29:35.235Z,18.28
2023-02-22T13:32:01.640Z,18.27
2023-02-22T13:34:29.570Z,18.24
2023-02-22T13:36:57.034Z,18.30
2023-02-22T13:39:25.507Z,18.23
2023-02-22T13:41:54.817Z,18.23
2023-02-22T13:44:21.148Z,18.25
2023-02-22T13:46:47.540Z,18.21
2023-02-22T13:49:14.753Z,18.25
2023-02-22T13:51:41.083Z,18.17
2023-02-22T13:54:10.367Z,18.28
2023-02-22T13:56:36.702Z,18.23
2023-02-22T13:59:03.024Z,18.26
2023-02-22T14:01:29.370Z,18.23
2023-02-22T14:03:55.687Z,18.22
2023-02-22T14:06:22.073Z,18.24
2023-02-22T14:08:48.422Z,18.26
2023-02-22T14:13:58.918Z,17.97
2023-02-22T14:16:25.396Z,17.94
2023-02-22T14:18:52.938Z,17.96
2023-02-22T14:21:19.280Z,17.95
2023-02-22T14:23:45.628Z,17.97
2023-02-22T14:28:55.867Z,17.95
2023-02-22T14:31:35.052Z,17.95
2023-02-22T14:34:02.748Z,17.94
2023-02-22T14:36:29.086Z,17.99
2023-02-22T14:38:55.453Z,17.98
2023-02-22T14:44:15.411Z,17.98
2023-02-22T14:46:41.767Z,17.95
2023-02-22T14:49:08.100Z,17.98
2023-02-22T14:51:34.458Z,17.99
2023-02-22T14:54:00.802Z,17.95
2023-02-22T14:59:21.088Z,17.99
2023-02-22T15:01:58.469Z,17.96
2023-02-22T15:04:32.321Z,17.96
2023-02-22T15:06:58.771Z,17.94
2023-02-22T15:09:28.460Z,17.95
2023-02-22T15:14:39.500Z,17.95
2023-02-22T15:17:06.091Z,17.95
2023-02-22T15:19:32.427Z,17.97
2023-02-22T15:21:58.745Z,17.96
2023-02-22T15:24:25.110Z,17.97
2023-02-22T15:29:35.255Z,17.94
2023-02-22T15:32:01.659Z,17.90
2023-02-22T15:34:28.038Z,17.89
2023-02-22T15:36:54.344Z,17.93
2023-02-22T15:39:20.718Z,17.92
2023-02-22T15:44:31.038Z,17.93
2023-02-22T15:46:57.380Z,17.93
2023-02-22T15:49:23.747Z,17.98
2023-02-22T15:51:50.099Z,17.95
2023-02-22T15:54:26.465Z,17.89
2023-02-22T15:59:37.746Z,17.91
2023-02-22T16:02:04.114Z,17.93
2023-02-22T16:04:32.112Z,17.92
2023-02-22T16:06:58.461Z,17.93
2023-02-22T16:09:24.846Z,18.22
2023-02-22T16:14:35.296Z,18.45
2023-02-22T16:17:01.632Z,18.44
2023-02-22T16:19:27.977Z,18.49
2023-02-22T16:21:54.329Z,18.48
2023-02-22T16:24:20.666Z,18.49
2023-02-22T16:29:40.774Z,18.62
2023-02-22T16:32:07.209Z,18.57
2023-02-22T16:34:33.763Z,18.65
2023-02-22T16:37:00.221Z,18.65
2023-02-22T16:39:26.546Z,18.59
2023-02-22T16:44:39.406Z,18.62
2023-02-22T16:47:05.788Z,18.62
2023-02-22T16:49:32.139Z,18.62
2023-02-22T16:51:58.442Z,18.59
2023-02-22T16:54:24.786Z,18.63
2023-02-22T16:59:35.361Z,18.71
2023-02-22T17:02:01.652Z,18.69
2023-02-22T17:04:27.968Z,18.69
2023-02-22T17:06:55.208Z,18.66
2023-02-22T17:09:21.623Z,18.69
2023-02-22T17:14:44.949Z,18.73
2023-02-22T17:17:13.221Z,18.70
2023-02-22T17:19:40.498Z,18.72
2023-02-22T17:22:06.997Z,18.73
2023-02-22T17:24:36.930Z,18.72
2023-02-22T17:29:59.275Z,18.80
2023-02-22T17:32:25.983Z,18.79
2023-02-22T17:34:54.314Z,18.79
2023-02-22T17:37:20.768Z,18.81
2023-02-22T17:39:49.097Z,18.79
2023-02-22T17:45:01.212Z,18.76
2023-02-22T17:47:28.465Z,18.76
2023-02-22T17:49:55.095Z,18.69
2023-02-22T17:52:24.276Z,18.68
2023-02-22T17:54:50.699Z,18.67
2023-02-22T18:00:13.130Z,18.71
2023-02-22T18:02:39.747Z,18.68
2023-02-22T18:05:07.045Z,18.70
2023-02-22T18:07:34.298Z,18.67
2023-02-22T18:10:02.005Z,18.73
2023-02-22T18:15:14.366Z,18.69
2023-02-22T18:17:40.878Z,18.72
2023-02-22T18:20:09.190Z,18.67
2023-02-22T18:22:36.449Z,18.70
2023-02-22T18:25:03.689Z,18.67
2023-02-22T18:27:30.104Z,18.73
2023-02-22T18:29:58.446Z,18.70
2023-02-22T18:32:24.998Z,18.71
2023-02-22T18:34:53.322Z,18.66
2023-02-22T18:37:20.646Z,18.73
2023-02-22T18:39:47.166Z,18.73
2023-02-22T18:42:13.652Z,18.75
2023-02-22T18:44:40.133Z,18.75
2023-02-22T18:47:06.560Z,18.75
2023-02-22T18:49:35.384Z,18.74
2023-02-22T18:52:01.866Z,18.91
2023-02-22T18:54:28.325Z,18.91
2023-02-22T18:56:54.754Z,18.88
2023-02-22T18:59:21.991Z,18.86
2023-02-22T19:01:48.393Z,18.78
2023-02-22T19:04:14.944Z,18.82
2023-02-22T19:06:41.320Z,18.82
2023-02-22T19:09:07.678Z,18.87
2023-02-22T19:11:34.042Z,18.88
2023-02-22T19:14:00.393Z,18.90
2023-02-22T19:16:28.790Z,18.90
2023-02-22T19:18:55.258Z,18.82
2023-02-22T19:21:22.105Z,18.78
2023-02-22T19:23:49.091Z,18.82
2023-02-22T19:26:15.756Z,18.83
2023-02-22T19:28:42.253Z,18.84
2023-02-22T19:31:08.723Z,18.82
2023-02-22T19:33:35.134Z,18.86
2023-02-22T19:36:02.346Z,18.83
2023-02-22T19:38:28.708Z,18.81
2023-02-22T19:40:55.112Z,18.77
2023-02-22T19:43:22.355Z,18.70
2023-02-22T19:48:35.773Z,18.75
2023-02-22T19:51:02.302Z,18.78
2023-02-22T19:53:28.724Z,18.75
2023-02-22T19:55:55.139Z,18.74
2023-02-22T19:58:25.089Z,18.78
2023-02-22T20:03:48.223Z,18.74
2023-02-22T20:06:14.954Z,18.76
2023-02-22T20:08:41.368Z,18.75
2023-02-22T20:11:08.679Z,18.75
2023-02-22T20:13:35.914Z,18.80
2023-02-22T20:18:46.477Z,18.82
2023-02-22T20:21:12.953Z,18.82
2023-02-22T20:23:39.434Z,18.78
2023-02-22T20:26:06.839Z,18.86
2023-02-22T20:28:33.290Z,18.87
2023-02-22T20:33:45.739Z,18.82
2023-02-22T20:36:12.254Z,18.77
2023-02-22T20:38:38.788Z,18.77
2023-02-22T20:41:06.044Z,18.73
2023-02-22T20:43:33.442Z,18.75
2023-02-22T20:48:44.899Z,18.71
2023-02-22T20:51:11.287Z,18.74
2023-02-22T20:53:38.672Z,18.75
2023-02-22T20:56:05.186Z,18.73
2023-02-22T20:58:31.666Z,18.74
2023-02-22T21:01:04.442Z,18.79
2023-02-22T21:03:30.931Z,18.95
2023-02-22T21:05:58.318Z,19.08
2023-02-22T21:08:24.777Z,19.08
2023-02-22T21:10:52.323Z,19.35
2023-02-22T21:13:18.787Z,19.73
2023-02-22T21:18:33.055Z,19.83
2023-02-22T21:21:01.484Z,19.56
2023-02-22T21:23:29.908Z,19.57
2023-02-22T21:25:58.307Z,19.43
2023-02-22T21:28:37.387Z,19.20
2023-02-22T21:34:00.822Z,19.07
2023-02-22T21:36:29.076Z,19.16
2023-02-22T21:38:56.523Z,19.14
2023-02-22T21:41:23.037Z,19.20
2023-02-22T21:43:51.038Z,18.92
2023-02-22T21:49:11.615Z,18.98
2023-02-22T21:51:38.270Z,19.08
2023-02-22T21:54:04.753Z,19.13
2023-02-22T21:56:31.242Z,19.17
2023-02-22T21:58:57.698Z,18.99
2023-02-22T22:04:08.255Z,19.00
2023-02-22T22:06:34.771Z,19.11
2023-02-22T22:09:02.191Z,19.16
2023-02-22T22:11:28.642Z,19.01
2023-02-22T22:13:55.099Z,18.84
2023-02-22T22:19:16.268Z,19.12
2023-02-22T22:21:42.732Z,18.99
2023-02-22T22:24:09.199Z,19.08
2023-02-22T22:26:36.702Z,19.02
2023-02-22T22:29:06.197Z,19.15
2023-02-22T22:34:18.344Z,18.92
2023-02-22T22:36:45.782Z,18.93
2023-02-22T22:39:12.273Z,18.84
2023-02-22T22:41:39.649Z,18.81
2023-02-22T22:44:06.145Z,18.84
2023-02-22T22:49:16.582Z,18.75
2023-02-22T22:51:43.961Z,18.70
2023-02-22T22:54:11.255Z,18.72
2023-02-22T22:56:38.702Z,18.71
2023-02-22T22:59:06.073Z,18.71
2023-02-22T23:04:16.656Z,18.68
2023-02-22T23:06:44.006Z,18.74
2023-02-22T23:09:11.274Z,18.70
2023-02-22T23:11:37.847Z,18.69
2023-02-22T23:14:04.293Z,18.65
2023-02-22T23:19:14.485Z,18.69
2023-02-22T23:21:42.769Z,18.66
2023-02-22T23:24:09.185Z,18.63
2023-02-22T23:26:38.355Z,18.51
2023-02-22T23:29:04.751Z,18.47
2023-02-22T23:31:31.202Z,18.47
2023-02-22T23:33:57.631Z,18.54
2023-02-22T23:36:25.952Z,18.62
2023-02-22T23:38:52.380Z,18.54
2023-02-22T23:41:19.041Z,18.56
2023-02-22T23:43:45.620Z,18.63
2023-02-22T23:46:12.027Z,18.59
2023-02-22T23:48:38.375Z,18.63
2023-02-22T23:51:04.741Z,18.61
2023-02-22T23:53:31.108Z,18.56
2023-02-22T23:55:57.475Z,18.58
2023-02-22T23:58:23.833Z,18.49
